Time;durP1;ratioP1;P1;durP2;ratioP2;P2;SDS_P1;SDS_P2;PMS_P1;PMS_P2;Temp;Humidity;BMP_temperature;BMP_pressure;BME280_temperature;BME280_humidity;BME280_pressure;Samples;Min_cycle;Max_cycle;Signal;HPM_P1;HPM_P2
2023/09/08 00:01:53;;;;;;;7.50;6.10;;;18.70;99.90;;;;;;5082779;28;20153;-57
2023/09/08 00:04:20;;;;;;;8.77;7.25;;;18.70;99.90;;;;;;5082433;28;20070;-55
2023/09/08 00:06:46;;;;;;;6.75;6.05;;;18.70;99.90;;;;;;5052896;28;20056;-57
2023/09/08 00:09:12;;;;;;;6.78;6.07;;;18.60;99.90;;;;;;5079398;28;20063;-57
2023/09/08 00:11:38;;;;;;;7.90;6.68;;;18.60;99.90;;;;;;5080672;28;21341;-58
2023/09/08 00:14:03;;;;;;;7.10;6.47;;;18.50;99.90;;;;;;5075684;28;20052;-58
2023/09/08 00:16:30;;;;;;;6.82;5.95;;;18.40;99.90;;;;;;5070669;28;20109;-58
2023/09/08 00:18:58;;;;;;;13.15;6.10;;;18.30;99.90;;;;;;5083266;28;20075;-58
2023/09/08 00:21:24;;;;;;;6.43;5.63;;;18.20;99.90;;;;;;5081966;28;20074;-57
2023/09/08 00:23:50;;;;;;;13.05;7.30;;;18.20;99.90;;;;;;5068710;28;20502;-58
2023/09/08 00:26:20;;;;;;;9.00;6.45;;;18.10;99.90;;;;;;5076050;28;20052;-58
2023/09/08 00:28:46;;;;;;;8.30;6.63;;;18.10;99.90;;;;;;5080956;28;20497;-58
2023/09/08 00:31:12;;;;;;;6.55;5.88;;;18.10;99.90;;;;;;5077337;28;20088;-57
2023/09/08 00:33:38;;;;;;;9.88;6.47;;;18.10;99.90;;;;;;5070882;28;20186;-59
2023/09/08 00:36:04;;;;;;;7.88;6.45;;;18.10;99.90;;;;;;5063244;28;20059;-59
2023/09/08 00:38:30;;;;;;;8.75;6.93;;;18.00;99.90;;;;;;5069688;28;20048;-57
2023/09/08 00:40:55;;;;;;;8.35;6.90;;;18.00;99.90;;;;;;5057851;28;20048;-61
2023/09/08 00:43:21;;;;;;;8.85;6.28;;;17.90;99.90;;;;;;5062685;28;20159;-60
2023/09/08 00:45:47;;;;;;;8.32;7.20;;;17.90;99.90;;;;;;5079865;28;20502;-60
2023/09/08 00:48:13;;;;;;;9.77;6.75;;;17.90;99.90;;;;;;5082864;28;21402;-58
2023/09/08 00:50:39;;;;;;;7.60;6.88;;;17.80;99.90;;;;;;5079282;28;20631;-58
2023/09/08 00:53:06;;;;;;;9.35;7.43;;;17.80;99.90;;;;;;5064303;28;20055;-58
2023/09/08 00:55:32;;;;;;;7.82;6.97;;;17.80;99.90;;;;;;5078326;28;20548;-58
2023/09/08 00:57:59;;;;;;;11.52;7.30;;;17.80;99.90;;;;;;5068703;28;20059;-58
2023/09/08 01:00:25;;;;;;;8.55;7.22;;;17.80;99.90;;;;;;5071671;28;20116;-58
2023/09/08 01:02:51;;;;;;;8.15;7.32;;;17.80;99.90;;;;;;5050052;28;20048;-57
2023/09/08 01:05:20;;;;;;;9.73;7.28;;;17.70;99.90;;;;;;5060470;28;20616;-60
2023/09/08 01:07:47;;;;;;;8.00;7.20;;;17.70;99.90;;;;;;5076466;28;20057;-58
2023/09/08 01:10:14;;;;;;;7.68;6.80;;;17.70;99.90;;;;;;5056834;28;20057;-58
2023/09/08 01:12:39;;;;;;;10.48;7.50;;;17.70;99.90;;;;;;5076505;28;20130;-59
2023/09/08 01:15:06;;;;;;;7.95;6.68;;;17.70;99.90;;;;;;5063821;28;20067;-58
2023/09/08 01:17:32;;;;;;;8.80;7.18;;;17.70;99.90;;;;;;5060705;28;20052;-58
2023/09/08 01:20:05;;;;;;;8.00;7.20;;;17.60;99.90;;;;;;5081829;28;20070;-58
2023/09/08 01:22:43;;;;;;;9.02;7.82;;;17.60;99.90;;;;;;5074970;28;20098;-57
2023/09/08 01:25:11;;;;;;;8.30;6.93;;;17.60;99.90;;;;;;5063759;28;20079;-59
2023/09/08 01:27:39;;;;;;;9.20;7.20;;;17.50;99.90;;;;;;5039533;28;20064;-58
2023/09/08 01:30:06;;;;;;;10.98;7.63;;;17.50;99.90;;;;;;5072336;28;20071;-58
2023/09/08 01:32:34;;;;;;;8.27;6.65;;;17.50;99.90;;;;;;5059295;28;20492;-58
2023/09/08 01:35:00;;;;;;;7.75;6.30;;;17.50;99.90;;;;;;5078267;28;20052;-60
2023/09/08 01:37:26;;;;;;;8.18;6.80;;;17.40;99.90;;;;;;5051431;28;20063;-58
2023/09/08 01:39:52;;;;;;;8.50;7.60;;;17.40;99.90;;;;;;5081497;28;20095;-58
2023/09/08 01:42:18;;;;;;;9.45;6.70;;;17.30;99.90;;;;;;5078188;28;20193;-57
2023/09/08 01:44:43;;;;;;;8.38;7.47;;;17.30;99.90;;;;;;5079244;28;20390;-59
2023/09/08 01:47:09;;;;;;;10.43;8.27;;;17.30;99.90;;;;;;5081794;28;20063;-60
2023/09/08 01:49:34;;;;;;;9.63;8.15;;;17.20;99.90;;;;;;5078899;28;20079;-58
2023/09/08 01:52:00;;;;;;;11.90;7.95;;;17.20;99.90;;;;;;5081283;28;20083;-58
2023/09/08 01:54:26;;;;;;;9.00;7.20;;;17.20;99.90;;;;;;5079189;28;20066;-59
2023/09/08 01:56:52;;;;;;;8.07;7.28;;;17.20;99.90;;;;;;5060074;28;20052;-60
2023/09/08 01:59:18;;;;;;;10.65;8.00;;;17.20;99.90;;;;;;5062775;28;20058;-58
2023/09/08 02:01:44;;;;;;;9.38;8.25;;;17.10;99.90;;;;;;5078559;28;20052;-58
2023/09/08 02:04:10;;;;;;;9.20;7.70;;;17.10;99.90;;;;;;5081604;28;20817;-58
2023/09/08 02:06:35;;;;;;;10.57;6.55;;;17.00;99.90;;;;;;5039529;28;1132585;-58
2023/09/08 02:09:01;;;;;;;9.15;7.35;;;16.90;99.90;;;;;;5081717;28;20172;-58
2023/09/08 02:11:27;;;;;;;11.98;7.55;;;16.90;99.90;;;;;;5059743;28;20071;-57
2023/09/08 02:13:52;;;;;;;8.85;7.25;;;16.80;99.90;;;;;;5079918;28;20761;-58
2023/09/08 02:16:18;;;;;;;13.27;7.93;;;16.80;99.90;;;;;;5080241;28;20059;-56
2023/09/08 02:18:44;;;;;;;8.35;7.55;;;16.80;99.90;;;;;;5079449;28;20113;-57
2023/09/08 02:21:10;;;;;;;7.97;7.25;;;16.70;99.90;;;;;;5081086;28;20108;-57
2023/09/08 02:23:37;;;;;;;9.90;8.30;;;16.70;99.90;;;;;;5059098;28;20144;-58
2023/09/08 02:26:02;;;;;;;10.05;7.68;;;16.70;99.90;;;;;;5081230;28;20094;-58
2023/09/08 02:28:29;;;;;;;8.60;7.60;;;16.60;99.90;;;;;;5061806;28;20151;-58
2023/09/08 02:30:54;;;;;;;9.93;8.93;;;16.60;99.90;;;;;;5081290;28;20209;-58
2023/09/08 02:33:21;;;;;;;9.50;7.85;;;16.60;99.90;;;;;;5065334;28;20063;-58
2023/09/08 02:35:47;;;;;;;14.50;9.60;;;16.60;99.90;;;;;;5064405;28;20563;-57
2023/09/08 02:38:13;;;;;;;11.63;9.10;;;16.50;99.90;;;;;;5071305;28;20045;-57
2023/09/08 02:40:38;;;;;;;10.02;8.25;;;16.50;99.90;;;;;;5061378;28;20055;-57
2023/09/08 02:43:04;;;;;;;9.30;8.30;;;16.50;99.90;;;;;;5080834;28;20099;-60
2023/09/08 02:45:30;;;;;;;9.80;8.02;;;16.40;99.90;;;;;;5076858;28;20056;-58
2023/09/08 02:47:56;;;;;;;10.10;8.52;;;16.40;99.90;;;;;;5066098;28;20172;-58
2023/09/08 02:50:22;;;;;;;8.85;7.95;;;16.40;99.90;;;;;;5078159;28;20064;-57
2023/09/08 02:52:48;;;;;;;11.20;8.18;;;16.30;99.90;;;;;;5067272;28;20060;-58
2023/09/08 02:55:14;;;;;;;10.77;8.50;;;16.30;99.90;;;;;;5071366;28;20048;-58
2023/09/08 02:57:39;;;;;;;8.30;7.50;;;16.30;99.90;;;;;;5068896;28;20085;-57
2023/09/08 03:00:07;;;;;;;9.40;8.07;;;16.30;99.90;;;;;;5057413;28;20529;-58
2023/09/08 03:02:33;;;;;;;10.48;9.05;;;16.30;99.90;;;;;;5057604;28;20052;-57
2023/09/08 03:05:00;;;;;;;9.32;8.32;;;16.30;99.90;;;;;;5081161;28;20056;-57
2023/09/08 03:07:26;;;;;;;11.23;8.25;;;16.20;99.90;;;;;;5060347;28;20052;-57
2023/09/08 03:09:52;;;;;;;9.13;8.15;;;16.20;99.90;;;;;;5065897;28;20433;-58
2023/09/08 03:12:18;;;;;;;11.52;9.00;;;16.20;99.90;;;;;;5077156;28;20245;-56
2023/09/08 03:14:44;;;;;;;11.10;8.57;;;16.10;99.90;;;;;;5074486;28;20104;-57
2023/09/08 03:17:11;;;;;;;9.88;7.80;;;16.10;99.90;;;;;;5062560;28;20390;-57
2023/09/08 03:19:36;;;;;;;11.52;8.57;;;16.00;99.90;;;;;;5063180;28;20064;-57
2023/09/08 03:22:02;;;;;;;9.85;8.43;;;15.90;99.90;;;;;;5078637;28;20060;-57
2023/09/08 03:24:28;;;;;;;8.98;8.07;;;15.90;99.90;;;;;;5081160;28;20052;-57
2023/09/08 03:26:54;;;;;;;9.65;8.63;;;15.90;99.90;;;;;;5079534;28;20052;-57
2023/09/08 03:29:19;;;;;;;9.55;8.13;;;15.80;99.90;;;;;;5080318;28;20048;-56
2023/09/08 03:31:45;;;;;;;9.70;8.27;;;15.70;99.90;;;;;;5072540;28;20522;-58
2023/09/08 03:34:11;;;;;;;10.50;8.68;;;15.70;99.90;;;;;;5041275;28;20052;-57
2023/09/08 03:36:36;;;;;;;11.23;8.32;;;15.60;99.90;;;;;;5055718;28;20068;-58
2023/09/08 03:39:03;;;;;;;8.65;7.80;;;15.60;99.90;;;;;;5078663;28;20067;-57
2023/09/08 03:41:29;;;;;;;11.57;8.30;;;15.60;99.90;;;;;;5072997;28;20052;-57
2023/09/08 03:43:54;;;;;;;10.98;9.23;;;15.60;99.90;;;;;;5055392;28;20054;-57
2023/09/08 03:46:20;;;;;;;9.85;8.52;;;15.60;99.90;;;;;;5072804;28;20597;-58
2023/09/08 03:48:46;;;;;;;13.60;10.75;;;15.50;99.90;;;;;;5060306;28;20877;-58
2023/09/08 03:51:12;;;;;;;12.90;8.93;;;15.50;99.90;;;;;;5080095;28;20672;-57
2023/09/08 03:53:38;;;;;;;10.00;8.88;;;15.50;99.90;;;;;;5071715;28;20081;-57
2023/09/08 03:56:03;;;;;;;9.95;8.95;;;15.50;99.90;;;;;;5077883;28;20397;-57
2023/09/08 03:58:29;;;;;;;12.45;9.80;;;15.40;99.90;;;;;;5062769;28;20405;-57
2023/09/08 04:00:55;;;;;;;9.63;8.63;;;15.40;99.90;;;;;;5083879;28;20052;-57
2023/09/08 04:03:20;;;;;;;10.98;9.10;;;15.40;99.90;;;;;;5081563;28;20475;-57
2023/09/08 04:05:46;;;;;;;11.88;8.65;;;15.40;99.90;;;;;;5082813;28;20052;-57
2023/09/08 04:08:12;;;;;;;9.10;8.20;;;15.30;99.90;;;;;;5065591;28;20765;-60
2023/09/08 04:10:37;;;;;;;9.35;8.45;;;15.30;99.90;;;;;;5062453;28;20052;-60
2023/09/08 04:13:04;;;;;;;11.55;9.18;;;15.30;99.90;;;;;;5047807;28;20166;-57
2023/09/08 04:15:29;;;;;;;12.38;9.52;;;15.30;99.90;;;;;;5074065;28;20146;-57
2023/09/08 04:17:57;;;;;;;11.10;9.25;;;15.20;99.90;;;;;;5084022;28;20062;-58
2023/09/08 04:20:22;;;;;;;13.65;9.55;;;15.20;99.90;;;;;;5063596;28;20059;-57
2023/09/08 04:22:48;;;;;;;10.63;9.52;;;15.20;99.90;;;;;;5082489;28;20055;-59
2023/09/08 04:25:18;;;;;;;12.52;9.20;;;15.20;99.90;;;;;;5080287;28;20056;-59
2023/09/08 04:27:44;;;;;;;10.57;9.43;;;15.10;99.90;;;;;;5062998;28;20053;-58
2023/09/08 04:30:10;;;;;;;11.63;10.07;;;15.10;99.90;;;;;;5083222;28;20064;-58
2023/09/08 04:32:37;;;;;;;13.02;9.07;;;15.10;99.90;;;;;;5080288;28;20070;-57
2023/09/08 04:35:04;;;;;;;10.98;9.75;;;15.10;99.90;;;;;;5080396;28;20101;-59
2023/09/08 04:37:30;;;;;;;11.82;8.93;;;15.00;99.90;;;;;;5061632;28;20063;-58
2023/09/08 04:39:56;;;;;;;12.05;9.00;;;15.00;99.90;;;;;;5064041;28;20052;-57
2023/09/08 04:42:23;;;;;;;10.32;9.13;;;15.00;99.90;;;;;;5081141;28;20060;-59
2023/09/08 04:44:49;;;;;;;14.80;10.38;;;15.00;99.90;;;;;;5080915;28;20048;-57
2023/09/08 04:47:18;;;;;;;13.93;9.98;;;14.90;99.90;;;;;;5082268;28;20058;-57
2023/09/08 04:49:44;;;;;;;10.88;9.65;;;15.00;99.90;;;;;;5061574;28;20052;-58
2023/09/08 04:52:11;;;;;;;13.65;10.68;;;15.00;99.90;;;;;;5082045;28;20066;-57
2023/09/08 04:54:37;;;;;;;10.70;9.27;;;15.00;99.90;;;;;;5060784;28;20083;-57
2023/09/08 04:57:03;;;;;;;13.02;10.05;;;14.90;99.90;;;;;;5062507;28;20067;-57
2023/09/08 04:59:28;;;;;;;12.68;9.93;;;14.90;99.90;;;;;;5078861;28;20911;-56
2023/09/08 05:01:54;;;;;;;12.10;9.52;;;14.90;99.90;;;;;;5082016;28;20052;-58
2023/09/08 05:04:21;;;;;;;12.73;9.80;;;14.90;99.90;;;;;;5061404;28;20063;-56
2023/09/08 05:06:47;;;;;;;13.63;10.13;;;15.00;99.90;;;;;;5079963;28;20142;-57
2023/09/08 05:09:13;;;;;;;12.40;9.82;;;14.90;99.90;;;;;;5062707;28;20052;-60
2023/09/08 05:11:39;;;;;;;11.95;10.15;;;14.90;99.90;;;;;;5079574;28;20503;-58
2023/09/08 05:14:05;;;;;;;11.02;9.40;;;14.90;99.90;;;;;;5082015;28;20048;-58
2023/09/08 05:16:45;;;;;;;12.63;10.23;;;14.90;99.90;;;;;;5078322;28;20506;-58
2023/09/08 05:19:12;;;;;;;11.15;9.75;;;14.90;99.90;;;;;;5082106;28;20138;-58
2023/09/08 05:21:38;;;;;;;12.63;10.48;;;14.90;99.90;;;;;;5060938;28;20830;-58
2023/09/08 05:24:04;;;;;;;11.27;9.75;;;14.90;99.90;;;;;;5081497;28;20056;-59
2023/09/08 05:26:30;;;;;;;11.50;9.43;;;14.90;99.90;;;;;;5075934;28;20063;-58
2023/09/08 05:28:56;;;;;;;14.70;10.30;;;15.00;99.90;;;;;;5075026;28;20114;-58
2023/09/08 05:31:21;;;;;;;12.25;8.77;;;15.00;99.90;;;;;;5062009;28;20064;-57
2023/09/08 05:33:47;;;;;;;10.52;9.18;;;15.00;99.90;;;;;;5080904;28;20146;-58
2023/09/08 05:36:13;;;;;;;11.65;9.20;;;15.10;99.90;;;;;;5081377;28;20047;-58
2023/09/08 05:38:39;;;;;;;16.48;11.02;;;15.10;99.90;;;;;;5061621;28;20125;-58
2023/09/08 05:41:04;;;;;;;12.40;10.15;;;15.20;99.90;;;;;;5077315;28;20061;-59
2023/09/08 05:43:30;;;;;;;17.48;9.95;;;15.20;99.90;;;;;;5039465;28;20494;-57
2023/09/08 05:45:56;;;;;;;13.07;10.23;;;15.30;99.90;;;;;;5077900;28;20140;-58
2023/09/08 05:48:21;;;;;;;12.23;9.95;;;15.40;99.90;;;;;;5041621;28;20063;-59
2023/09/08 05:50:47;;;;;;;11.85;9.65;;;15.40;99.90;;;;;;5072384;28;20433;-58
2023/09/08 05:53:13;;;;;;;14.15;10.43;;;15.60;99.90;;;;;;5060367;28;20454;-57
2023/09/08 05:55:39;;;;;;;13.27;11.38;;;15.60;99.90;;;;;;5077324;28;20128;-57
2023/09/08 05:58:07;;;;;;;10.77;9.65;;;15.70;99.90;;;;;;5074940;28;20075;-57
2023/09/08 06:00:33;;;;;;;13.88;11.38;;;15.80;99.90;;;;;;5067039;28;20047;-58
2023/09/08 06:02:58;;;;;;;15.32;10.75;;;16.00;99.90;;;;;;5065332;28;20429;-58
2023/09/08 06:05:24;;;;;;;12.98;10.80;;;16.10;99.90;;;;;;5077185;28;20051;-58
2023/09/08 06:07:50;;;;;;;16.45;10.82;;;16.20;99.90;;;;;;5077218;28;20051;-58
2023/09/08 06:10:19;;;;;;;16.77;9.98;;;16.40;99.90;;;;;;5053517;28;20056;-59
2023/09/08 06:12:44;;;;;;;15.55;11.00;;;16.60;99.90;;;;;;5078849;28;20083;-57
2023/09/08 06:15:10;;;;;;;19.45;11.48;;;16.70;99.90;;;;;;5078627;28;20163;-57
2023/09/08 06:17:36;;;;;;;19.77;12.13;;;16.90;99.90;;;;;;5059838;28;20150;-57
2023/09/08 06:20:02;;;;;;;17.58;12.32;;;17.00;99.90;;;;;;5072430;28;20062;-58
2023/09/08 06:22:27;;;;;;;17.23;11.68;;;17.20;99.90;;;;;;5077509;28;20056;-58
2023/09/08 06:24:53;;;;;;;23.30;11.05;;;17.30;99.90;;;;;;5027799;28;1323739;-57
2023/09/08 06:27:19;;;;;;;14.35;11.35;;;17.50;99.90;;;;;;5070806;28;20052;-56
2023/09/08 06:29:44;;;;;;;14.27;10.82;;;17.70;99.90;;;;;;5067379;28;20048;-59
2023/09/08 06:32:11;;;;;;;15.18;11.00;;;17.80;99.90;;;;;;5071721;28;20215;-57
2023/09/08 06:34:36;;;;;;;12.77;10.05;;;18.00;99.90;;;;;;5077517;28;20060;-57
2023/09/08 06:37:02;;;;;;;14.02;10.32;;;18.20;99.90;;;;;;5051896;28;20500;-57
2023/09/08 06:39:28;;;;;;;15.65;10.38;;;18.40;99.90;;;;;;5069769;28;20056;-57
2023/09/08 06:41:54;;;;;;;10.80;8.93;;;18.60;99.90;;;;;;5067482;28;20075;-58
2023/09/08 06:44:21;;;;;;;12.90;10.35;;;18.80;99.90;;;;;;5068229;28;20447;-58
2023/09/08 06:46:47;;;;;;;11.10;9.85;;;19.10;99.90;;;;;;5076788;28;20129;-57
2023/09/08 06:49:12;;;;;;;10.50;8.85;;;19.30;99.90;;;;;;5065437;28;20143;-57
2023/09/08 06:51:38;;;;;;;11.75;8.70;;;19.70;99.90;;;;;;5077287;28;20567;-57
2023/09/08 06:54:05;;;;;;;10.02;9.02;;;19.80;99.90;;;;;;5046292;28;20055;-57
2023/09/08 06:56:31;;;;;;;10.38;8.88;;;20.00;99.90;;;;;;5073764;28;20063;-57
2023/09/08 06:59:00;;;;;;;11.40;8.55;;;20.30;99.90;;;;;;5083848;28;20083;-57
2023/09/08 07:01:25;;;;;;;11.45;9.80;;;20.40;99.90;;;;;;5082187;28;20138;-57
2023/09/08 07:03:51;;;;;;;13.10;7.95;;;20.70;99.90;;;;;;5082904;28;20523;-58
2023/09/08 07:06:22;;;;;;;9.93;8.93;;;20.90;99.90;;;;;;5082811;28;20056;-58
2023/09/08 07:08:50;;;;;;;9.93;8.35;;;21.20;99.90;;;;;;5082561;28;20083;-59
2023/09/08 07:11:19;;;;;;;11.40;8.18;;;21.30;99.90;;;;;;5070102;28;20141;-58
2023/09/08 07:13:44;;;;;;;8.75;7.85;;;21.50;99.90;;;;;;5066493;28;20058;-60
2023/09/08 07:16:10;;;;;;;8.80;7.45;;;21.70;99.90;;;;;;5071616;28;20496;-58
2023/09/08 07:18:37;;;;;;;8.73;7.70;;;22.00;99.90;;;;;;5056844;28;20109;-57
2023/09/08 07:21:03;;;;;;;11.00;7.65;;;22.20;99.90;;;;;;5075140;28;20052;-58
2023/09/08 07:23:32;;;;;;;7.93;7.13;;;22.50;99.90;;;;;;5054958;28;20046;-59
2023/09/08 07:25:57;;;;;;;15.07;8.10;;;22.70;99.90;;;;;;5071613;28;20674;-58
2023/09/08 07:28:23;;;;;;;10.32;8.23;;;22.80;99.90;;;;;;5057297;28;20159;-57
2023/09/08 07:30:49;;;;;;;9.15;7.30;;;22.90;99.90;;;;;;5080499;28;20056;-58
2023/09/08 07:35:44;;;;;;;10.43;7.57;;;23.20;99.90;;;;;;5067645;28;20418;-57
2023/09/08 07:38:09;;;;;;;14.10;7.90;;;23.20;99.90;;;;;;5071073;28;20147;-57
2023/09/08 07:40:35;;;;;;;9.23;7.05;;;23.40;99.90;;;;;;5045324;28;20060;-58
2023/09/08 07:43:02;;;;;;;8.82;7.07;;;23.50;99.90;;;;;;5072692;28;20143;-58
2023/09/08 07:45:28;;;;;;;11.85;8.20;;;23.50;99.90;;;;;;5054957;28;20052;-58
2023/09/08 07:47:54;;;;;;;8.48;7.07;;;23.50;99.90;;;;;;5076189;28;20053;-58
2023/09/08 07:50:27;;;;;;;9.77;7.97;;;23.80;99.90;;;;;;5073686;28;20052;-62
2023/09/08 07:52:55;;;;;;;9.32;7.72;;;23.50;99.90;;;;;;5050693;28;20142;-58
2023/09/08 07:55:22;;;;;;;8.13;7.32;;;23.70;99.90;;;;;;5070789;28;20063;-57
2023/09/08 07:57:50;;;;;;;7.65;6.93;;;24.00;99.90;;;;;;5072704;28;20055;-58
2023/09/08 08:00:19;;;;;;;8.88;7.68;;;24.30;99.90;;;;;;5073597;28;20075;-60
2023/09/08 08:02:50;;;;;;;8.38;7.57;;;24.30;99.90;;;;;;5071784;28;20061;-64
2023/09/08 08:05:20;;;;;;;8.60;7.05;;;24.50;99.90;;;;;;5088068;28;20052;-58
2023/09/08 08:07:46;;;;;;;8.35;7.55;;;24.70;99.90;;;;;;5075172;28;20086;-58
2023/09/08 08:10:13;;;;;;;8.65;7.75;;;24.70;99.90;;;;;;5076158;28;20274;-63
2023/09/08 08:12:40;;;;;;;7.75;6.95;;;24.80;99.90;;;;;;5072692;28;21559;-64
2023/09/08 08:15:06;;;;;;;8.90;8.00;;;24.80;99.90;;;;;;5074386;28;20059;-62
2023/09/08 08:17:32;;;;;;;8.75;7.47;;;25.20;99.90;;;;;;5073621;28;20498;-64
2023/09/08 08:19:58;;;;;;;9.57;6.47;;;25.40;99.90;;;;;;5068756;28;20052;-61
2023/09/08 08:22:27;;;;;;;7.78;6.68;;;25.90;99.90;;;;;;5065074;28;20088;-60
2023/09/08 08:24:53;;;;;;;7.82;6.95;;;26.20;99.90;;;;;;5075234;28;20149;-66
2023/09/08 08:27:18;;;;;;;7.82;6.88;;;26.40;99.90;;;;;;5057326;28;20065;-57
2023/09/08 08:29:44;;;;;;;7.15;6.40;;;26.70;99.90;;;;;;5073165;28;20483;-60
2023/09/08 08:32:11;;;;;;;7.57;6.70;;;27.10;99.90;;;;;;5056263;28;20075;-58
2023/09/08 08:34:36;;;;;;;7.25;6.50;;;27.10;99.90;;;;;;5054398;28;20609;-58
2023/09/08 08:37:03;;;;;;;8.00;5.57;;;27.50;99.90;;;;;;5060999;28;20109;-59
2023/09/08 08:39:28;;;;;;;6.75;6.05;;;28.00;99.90;;;;;;5058279;28;20555;-58
2023/09/08 08:41:54;;;;;;;7.65;6.82;;;28.30;99.90;;;;;;5055809;28;20056;-59
2023/09/08 08:44:21;;;;;;;9.57;6.00;;;28.50;99.90;;;;;;5043678;28;20064;-58
2023/09/08 08:46:47;;;;;;;6.50;5.90;;;28.60;99.90;;;;;;5053461;28;20139;-59
2023/09/08 08:49:18;;;;;;;6.55;5.95;;;28.80;99.90;;;;;;5062573;28;20052;-59
2023/09/08 08:51:45;;;;;;;8.43;5.97;;;29.20;99.90;;;;;;5057961;28;20736;-59
2023/09/08 08:54:18;;;;;;;7.35;5.95;;;29.70;99.90;;;;;;5031763;28;20110;-58
2023/09/08 08:56:44;;;;;;;7.70;5.50;;;29.50;99.90;;;;;;5067244;28;20808;-59
2023/09/08 08:59:11;;;;;;;7.03;5.80;;;29.90;99.90;;;;;;5046345;28;20219;-59
2023/09/08 09:01:37;;;;;;;5.57;5.10;;;29.80;99.90;;;;;;5058039;28;20072;-59
2023/09/08 09:04:06;;;;;;;6.05;5.30;;;29.70;99.90;;;;;;5062595;28;20051;-59
2023/09/08 09:06:32;;;;;;;10.05;5.68;;;30.00;99.90;;;;;;5060509;28;20174;-59
2023/09/08 09:08:59;;;;;;;6.60;5.40;;;30.40;99.90;;;;;;5060550;28;20099;-59
2023/09/08 09:11:25;;;;;;;5.85;5.05;;;30.50;99.90;;;;;;5060482;28;20056;-59
2023/09/08 09:13:51;;;;;;;6.10;5.03;;;31.20;99.90;;;;;;5067871;28;20075;-59
2023/09/08 09:16:20;;;;;;;6.07;5.10;;;31.20;99.90;;;;;;5070248;28;20056;-58
2023/09/08 09:18:59;;;;;;;5.75;4.75;;;31.40;99.90;;;;;;5068730;28;20082;-58
2023/09/08 09:21:48;;;;;;;7.43;4.38;;;31.30;99.90;;;;;;5067272;28;20130;-59
2023/09/08 09:26:44;;;;;;;7.03;4.22;;;32.20;99.90;;;;;;5049012;28;20572;-59
2023/09/08 09:29:13;;;;;;;4.70;4.28;;;32.20;99.90;;;;;;5043783;28;20037;-59
2023/09/08 09:32:03;;;;;;;6.15;4.38;;;32.30;99.90;;;;;;5026732;28;20068;-58
2023/09/08 09:34:29;;;;;;;4.88;4.30;;;32.60;99.90;;;;;;5026328;28;20057;-58
2023/09/08 09:36:55;;;;;;;4.93;4.10;;;32.80;99.90;;;;;;5046141;28;20072;-59
2023/09/08 09:39:26;;;;;;;5.18;4.07;;;32.80;99.90;;;;;;5057066;28;20048;-59
2023/09/08 09:41:56;;;;;;;4.00;3.70;;;32.70;99.90;;;;;;5034200;28;20639;-58
2023/09/08 09:44:23;;;;;;;4.70;4.20;;;32.50;99.90;;;;;;5055850;28;20109;-59
2023/09/08 09:46:51;;;;;;;5.95;3.80;;;33.00;99.90;;;;;;5059240;28;20056;-59
2023/09/08 09:49:20;;;;;;;4.53;3.78;;;32.50;99.90;;;;;;5059954;28;20056;-59
2023/09/08 09:51:53;;;;;;;4.28;3.88;;;32.80;99.90;;;;;;5057970;28;20056;-58
2023/09/08 09:54:19;;;;;;;8.23;3.78;;;32.90;99.90;;;;;;5058485;28;20072;-57
2023/09/08 09:56:46;;;;;;;4.50;3.38;;;33.00;99.90;;;;;;5058131;28;20063;-59
2023/09/08 09:59:13;;;;;;;4.25;3.85;;;32.80;99.90;;;;;;5058252;28;20068;-59
2023/09/08 10:01:43;;;;;;;4.47;3.70;;;32.80;99.90;;;;;;5055706;28;20498;-59
2023/09/08 10:04:09;;;;;;;5.18;3.80;;;32.60;99.90;;;;;;5057156;28;20115;-59
2023/09/08 10:06:36;;;;;;;4.60;4.22;;;32.30;99.90;;;;;;5056546;28;20536;-59
2023/09/08 10:09:04;;;;;;;5.15;4.00;;;32.60;99.90;;;;;;5059539;28;20418;-59
2023/09/08 10:11:38;;;;;;;5.13;3.42;;;32.10;99.90;;;;;;5053689;28;20490;-59
2023/09/08 10:14:07;;;;;;;5.47;3.75;;;32.30;99.90;;;;;;5059490;28;20056;-59
2023/09/08 10:16:36;;;;;;;4.45;4.03;;;32.40;99.90;;;;;;5056960;28;20103;-59
2023/09/08 10:19:09;;;;;;;4.97;3.55;;;32.80;99.90;;;;;;5059851;28;20057;-59
2023/09/08 10:21:41;;;;;;;4.95;3.83;;;33.20;99.90;;;;;;5054694;28;20072;-58
2023/09/08 10:24:22;;;;;;;3.70;3.25;;;33.30;99.90;;;;;;5031149;28;20139;-61
2023/09/08 10:27:00;;;;;;;4.15;3.63;;;33.00;99.90;;;;;;5049100;28;20048;-59
2023/09/08 10:29:27;;;;;;;4.45;3.65;;;33.20;99.90;;;;;;5052656;28;20053;-60
2023/09/08 10:31:55;;;;;;;5.40;4.13;;;33.30;99.90;;;;;;5035236;28;20568;-59
2023/09/08 10:34:22;;;;;;;3.65;3.33;;;32.90;99.90;;;;;;5037895;28;20053;-57
2023/09/08 10:36:47;;;;;;;11.35;3.55;;;33.20;99.90;;;;;;5019004;28;20117;-58
2023/09/08 10:41:40;;;;;;;7.68;3.83;;;33.10;99.90;;;;;;5045566;28;20067;-65
2023/09/08 10:44:14;;;;;;;5.68;4.20;;;32.80;99.90;;;;;;4994440;28;1088073;-60
2023/09/08 10:46:39;;;;;;;;;;;33.30;99.90;;;;;;5052095;28;20072;-59
2023/09/08 10:49:07;;;;;;;3.72;3.42;;;33.20;99.90;;;;;;5053516;28;19924;-59
2023/09/08 10:51:34;;;;;;;3.72;3.40;;;33.20;99.90;;;;;;5047094;28;20090;-62
2023/09/08 10:54:00;;;;;;;4.70;3.95;;;33.70;99.90;;;;;;5052743;28;20165;-59
2023/09/08 10:57:06;;;;;;;4.03;3.45;;;33.90;99.90;;;;;;5051764;28;20056;-64
2023/09/08 10:59:37;;;;;;;3.25;2.92;;;33.70;99.60;;;;;;5053145;28;20063;-60
2023/09/08 11:02:04;;;;;;;4.47;3.97;;;33.50;99.90;;;;;;5046791;28;20159;-59
2023/09/08 11:04:30;;;;;;;4.15;3.72;;;33.60;99.90;;;;;;5050224;28;20098;-58
2023/09/08 11:07:00;;;;;;;4.40;3.80;;;33.50;99.90;;;;;;5053536;28;20056;-59
2023/09/08 11:09:26;;;;;;;4.20;3.80;;;33.80;99.90;;;;;;5048645;28;20052;-59
2023/09/08 11:11:51;;;;;;;5.47;4.05;;;33.80;99.60;;;;;;5027578;28;20063;-59
2023/09/08 11:14:19;;;;;;;4.15;3.75;;;33.80;99.90;;;;;;5055323;28;20052;-58
2023/09/08 11:16:45;;;;;;;8.35;4.13;;;33.90;99.60;;;;;;5023493;28;20077;-59
2023/09/08 11:19:11;;;;;;;3.88;3.53;;;33.60;99.40;;;;;;5043771;28;20160;-59
2023/09/08 11:21:37;;;;;;;4.18;3.78;;;34.10;99.20;;;;;;5035961;28;20844;-59
2023/09/08 11:24:04;;;;;;;6.25;3.83;;;35.00;99.10;;;;;;5050159;28;20524;-59
2023/09/08 11:26:34;;;;;;;3.45;3.15;;;37.30;96.60;;;;;;5046698;28;20143;-60
2023/09/08 11:29:00;;;;;;;4.15;3.72;;;38.70;95.50;;;;;;5049768;28;20175;-59
2023/09/08 11:31:25;;;;;;;3.60;3.30;;;40.30;94.60;;;;;;5050944;28;20060;-59
2023/09/08 11:33:55;;;;;;;4.32;3.92;;;39.80;93.10;;;;;;5015498;28;20053;-60
2023/09/08 11:36:21;;;;;;;7.78;3.72;;;40.60;92.80;;;;;;5043190;28;20084;-58
2023/09/08 11:38:46;;;;;;;5.15;3.58;;;41.00;92.70;;;;;;5033871;28;20061;-59
2023/09/08 11:41:13;;;;;;;3.20;2.90;;;42.50;91.70;;;;;;5031630;28;21081;-58
2023/09/08 11:43:39;;;;;;;4.07;3.28;;;42.70;90.80;;;;;;5031554;28;20041;-58
2023/09/08 11:46:06;;;;;;;3.75;3.33;;;42.70;90.70;;;;;;5037503;28;20061;-58
2023/09/08 11:48:32;;;;;;;3.92;3.22;;;43.80;90.20;;;;;;5035514;28;20061;-61
2023/09/08 11:50:58;;;;;;;5.18;3.78;;;43.10;88.00;;;;;;5042525;28;20102;-59
2023/09/08 11:53:24;;;;;;;6.70;3.88;;;42.00;89.50;;;;;;5041867;28;20049;-60
2023/09/08 11:55:50;;;;;;;4.80;3.53;;;41.70;88.80;;;;;;5030829;28;20052;-60
2023/09/08 11:58:20;;;;;;;5.63;3.35;;;40.70;88.30;;;;;;5046709;28;20064;-60
2023/09/08 12:00:49;;;;;;;3.38;3.08;;;39.00;88.90;;;;;;5054308;28;21218;-58
2023/09/08 12:03:18;;;;;;;6.63;3.25;;;38.20;90.30;;;;;;5056422;28;20052;-59
2023/09/08 12:05:50;;;;;;;3.63;3.20;;;37.60;90.70;;;;;;5054965;28;20087;-60
2023/09/08 12:08:19;;;;;;;5.88;4.00;;;37.40;91.30;;;;;;5059366;28;20611;-61
2023/09/08 12:10:45;;;;;;;4.47;4.00;;;36.60;91.60;;;;;;5036522;28;20076;-58
2023/09/08 12:13:13;;;;;;;5.00;3.28;;;36.40;92.10;;;;;;5060848;28;20087;-60
2023/09/08 12:15:40;;;;;;;8.35;4.13;;;35.80;91.70;;;;;;5055388;28;20080;-61
2023/09/08 12:18:08;;;;;;;3.78;3.38;;;35.30;91.70;;;;;;5058622;28;20087;-60
2023/09/08 12:20:36;;;;;;;3.17;2.70;;;35.70;92.30;;;;;;5052034;28;20516;-59
2023/09/08 12:23:04;;;;;;;3.30;3.00;;;35.70;92.60;;;;;;5058644;28;20055;-59
2023/09/08 12:25:34;;;;;;;4.22;3.30;;;35.20;91.50;;;;;;5029477;28;20418;-59
2023/09/08 12:28:01;;;;;;;4.70;2.92;;;35.30;92.30;;;;;;5038752;28;20091;-59
2023/09/08 12:30:32;;;;;;;7.13;3.28;;;35.30;92.50;;;;;;5049365;28;20569;-59
2023/09/08 12:32:59;;;;;;;3.72;3.08;;;35.40;92.40;;;;;;5043725;28;20135;-59
2023/09/08 12:35:26;;;;;;;5.68;3.00;;;35.10;92.30;;;;;;5033385;28;20090;-59
2023/09/08 12:38:01;;;;;;;4.55;3.30;;;35.10;92.10;;;;;;5050249;28;20048;-60
2023/09/08 12:40:28;;;;;;;3.20;2.83;;;35.10;92.00;;;;;;5048013;28;20044;-59
2023/09/08 12:42:55;;;;;;;3.55;2.78;;;35.50;92.20;;;;;;5028192;28;20056;-59
2023/09/08 12:45:25;;;;;;;4.05;3.05;;;35.50;92.50;;;;;;5029643;28;20080;-59
2023/09/08 12:47:51;;;;;;;4.20;3.20;;;35.40;92.00;;;;;;5028821;28;20163;-58
2023/09/08 12:50:20;;;;;;;3.95;3.08;;;35.60;92.20;;;;;;5030942;28;20664;-58